Time;durP1;ratioP1;P1;durP2;ratioP2;P2;SDS_P1;SDS_P2;PMS_P1;PMS_P2;Temp;Humidity;BMP_temperature;BMP_pressure;BME280_temperature;BME280_humidity;BME280_pressure;Samples;Min_cycle;Max_cycle;Signal;HPM_P1;HPM_P2
2022/09/24 00:00:43;;;;;;;54.42;28.45;;;;;;;12.91;71.93;100933.34;5038310;28;20018;-88
2022/09/24 00:03:08;;;;;;;64.13;29.42;;;;;;;12.79;72.93;100914.63;5118726;22;20042;-88
2022/09/24 00:05:40;;;;;;;44.22;28.60;;;;;;;12.66;72.65;100889.72;5025136;28;20083;-90
2022/09/24 00:08:07;;;;;;;143.13;30.15;;;;;;;12.99;72.65;100952.44;5023386;28;20034;-89
2022/09/24 00:10:54;;;;;;;74.40;25.40;;;;;;;12.84;72.66;100934.84;4995169;28;20081;-91
2022/09/24 00:13:19;;;;;;;37.65;19.52;;;;;;;12.98;72.48;100941.75;5270186;22;20129;-90
2022/09/24 00:15:48;;;;;;;60.60;20.40;;;;;;;12.73;72.70;100894.44;5023333;28;20105;-90
2022/09/24 00:18:19;;;;;;;32.13;16.50;;;;;;;13.08;72.85;100948.97;5043515;28;20587;-89
2022/09/24 00:20:45;;;;;;;39.17;14.70;;;;;;;13.11;72.31;100944.28;5030410;28;20045;-90
2022/09/24 00:23:11;;;;;;;63.60;13.02;;;;;;;13.04;71.53;100952.91;5035637;28;20041;-89
2022/09/24 00:28:28;;;;;;;22.35;10.60;;;;;;;13.03;71.44;100948.47;5018633;28;20045;-87
2022/09/24 00:30:57;;;;;;;64.50;13.52;;;;;;;12.98;71.40;100930.97;5022422;28;20477;-87
2022/09/24 00:33:23;;;;;;;87.03;13.85;;;;;;;13.06;71.62;100940.09;5022686;28;20091;-88
2022/09/24 00:35:48;;;;;;;23.25;10.27;;;;;;;12.84;71.08;100910.53;5013320;28;20033;-89
2022/09/24 00:38:14;;;;;;;17.50;9.60;;;;;;;13.00;71.08;100934.38;5014991;28;20479;-88
2022/09/24 00:40:40;;;;;;;17.50;8.48;;;;;;;12.95;71.08;100934.78;5029417;28;20405;-89
2022/09/24 00:43:30;;;;;;;14.57;9.23;;;;;;;12.94;70.54;100930.38;5014209;28;20053;-89
2022/09/24 00:46:20;;;;;;;17.77;8.90;;;;;;;12.90;70.38;100922.69;5014717;28;20025;-89
2022/09/24 00:48:47;;;;;;;19.65;9.75;;;;;;;12.97;70.65;100938.19;5021420;28;20459;-88
2022/09/24 00:51:17;;;;;;;16.92;7.45;;;;;;;12.74;71.03;100912.34;5139685;22;20117;-88
2022/09/24 00:54:04;;;;;;;17.27;8.57;;;;;;;12.85;71.13;100950.06;5042940;28;20029;-89
2022/09/24 00:56:35;;;;;;;18.55;7.15;;;;;;;12.69;71.26;100930.75;5034266;28;20472;-89
2022/09/24 00:59:02;;;;;;;59.92;10.85;;;;;;;12.76;71.15;100926.56;5041498;28;20109;-90
2022/09/24 01:01:31;;;;;;;17.65;6.40;;;;;;;12.83;71.26;100938.53;5049282;28;20029;-87
2022/09/24 01:03:58;;;;;;;18.02;6.65;;;;;;;12.65;71.02;100902.34;5085218;23;20037;-87
2022/09/24 01:06:25;;;;;;;70.28;9.65;;;;;;;12.69;70.77;100898.38;5020444;28;20084;-90
2022/09/24 01:08:52;;;;;;;25.70;6.85;;;;;;;12.80;70.90;100916.34;5018327;28;20104;-90
2022/09/24 01:11:40;;;;;;;155.30;15.23;;;;;;;12.85;70.44;100936.56;5023053;28;20033;-90
2022/09/24 01:14:31;;;;;;;25.27;7.80;;;;;;;12.39;70.44;100860.53;5029021;28;20029;-91
2022/09/24 01:17:31;;;;;;;15.93;6.18;;;;;;;12.75;71.39;100924.00;5032332;28;20038;-89
2022/09/24 01:20:23;;;;;;;10.15;6.20;;;;;;;12.83;70.80;100933.16;5016245;28;20080;-88
2022/09/24 01:22:58;;;;;;;10.30;5.82;;;;;;;12.86;70.84;100930.19;4994328;28;20031;-88
2022/09/24 01:25:26;;;;;;;11.75;6.82;;;;;;;12.87;70.63;100942.66;4996087;28;20034;-88
2022/09/24 01:27:55;;;;;;;15.30;7.05;;;;;;;12.86;70.52;100930.19;4996502;28;20110;-88
2022/09/24 01:30:21;;;;;;;11.18;7.10;;;;;;;12.63;70.72;100896.19;4983543;28;20134;-89
2022/09/24 01:32:59;;;;;;;12.98;6.72;;;;;;;12.83;70.76;100933.16;4971912;28;20051;-89
2022/09/24 01:35:30;;;;;;;14.10;6.18;;;;;;;12.80;70.97;100921.75;4959058;28;20052;-87
2022/09/24 01:38:07;;;;;;;23.90;7.15;;;;;;;12.80;71.25;100914.50;4973753;28;20034;-89
2022/09/24 01:40:34;;;;;;;20.50;8.18;;;;;;;12.80;70.84;100919.06;4972350;28;20149;-90
2022/09/24 01:43:03;;;;;;;18.67;8.77;;;;;;;12.76;70.54;100917.59;4971320;28;20027;-89
2022/09/24 01:45:30;;;;;;;16.98;7.57;;;;;;;12.47;70.62;100882.31;4971625;28;20035;-87
2022/09/24 01:47:59;;;;;;;13.73;7.78;;;;;;;12.58;70.54;100898.44;4969395;28;20473;-89
2022/09/24 01:50:28;;;;;;;20.52;8.25;;;;;;;12.74;70.56;100916.88;4988614;28;20430;-88
2022/09/24 01:53:08;;;;;;;98.07;13.52;;;;;;;12.92;70.46;100943.16;4971114;28;20062;-87
2022/09/24 01:55:44;;;;;;;27.35;7.95;;;;;;;12.88;70.67;100930.91;4971055;28;20031;-87
2022/09/24 01:58:15;;;;;;;15.07;7.28;;;;;;;12.90;70.36;100939.72;4970914;28;20030;-89
2022/09/24 02:00:46;;;;;;;97.40;13.53;;;;;;;12.68;70.29;100906.63;4990915;28;20046;-88
2022/09/24 02:03:16;;;;;;;14.52;8.55;;;;;;;12.48;70.47;100865.13;5027352;28;20042;-87
2022/09/24 02:05:50;;;;;;;15.52;7.68;;;;;;;12.70;69.69;100910.88;5012358;28;20432;-87
2022/09/24 02:08:51;;;;;;;14.48;7.93;;;;;;;12.87;69.78;100948.06;5012500;28;20037;-88
2022/09/24 02:11:22;;;;;;;21.00;7.68;;;;;;;12.68;69.07;100926.38;4954913;28;20137;-88
2022/09/24 02:14:16;;;;;;;36.83;8.50;;;;;;;12.75;69.44;100946.44;4974128;28;20050;-88
2022/09/24 02:16:46;;;;;;;25.20;7.13;;;;;;;12.74;69.82;100944.72;4916863;29;20492;-88
2022/09/24 02:19:17;;;;;;;16.73;7.28;;;;;;;12.73;69.83;100948.41;4916490;29;20036;-86
2022/09/24 02:21:45;;;;;;;11.70;6.80;;;;;;;12.51;69.79;100913.44;4920272;29;20052;-87
2022/09/24 02:24:29;;;;;;;9.98;7.13;;;;;;;12.66;70.50;100940.97;4920457;29;20136;-86
2022/09/24 02:26:54;;;;;;;16.02;6.55;;;;;;;12.54;70.20;100926.66;4921861;29;20052;-87
2022/09/24 02:29:20;;;;;;;17.05;6.65;;;;;;;12.66;70.09;100947.22;4918288;29;20028;-87
2022/09/24 02:31:53;;;;;;;11.25;6.63;;;;;;;12.67;69.84;100948.06;4901275;29;20131;-87
2022/09/24 02:34:24;;;;;;;14.98;7.28;;;;;;;12.49;70.23;100921.69;4918323;29;20526;-88
2022/09/24 02:36:51;;;;;;;10.70;6.97;;;;;;;12.61;70.25;100933.25;4921232;29;20039;-88
2022/09/24 02:39:18;;;;;;;13.65;6.90;;;;;;;12.37;70.18;100889.47;4926146;29;20047;-87
2022/09/24 02:41:46;;;;;;;11.23;7.13;;;;;;;12.30;70.42;100893.69;4926393;29;20040;-86
2022/09/24 02:46:46;;;;;;;23.75;10.32;;;;;;;11.89;69.98;100825.25;5092743;22;20127;-87
2022/09/24 02:49:13;;;;;;;17.08;10.02;;;;;;;12.45;70.03;100912.13;5078907;28;20095;-88
2022/09/24 02:51:59;;;;;;;20.75;10.43;;;;;;;12.40;69.92;100902.72;5058776;28;20025;-86
2022/09/24 02:54:24;;;;;;;15.15;9.40;;;;;;;12.36;69.72;100885.94;5040794;28;20113;-84
2022/09/24 02:56:51;;;;;;;13.35;9.00;;;;;;;12.67;69.35;100940.84;5054402;28;20064;-89
2022/09/24 02:59:18;;;;;;;19.95;8.65;;;;;;;12.44;69.57;100888.84;4993800;28;20457;-84
2022/09/24 03:01:44;;;;;;;13.38;7.88;;;;;;;12.69;69.42;100936.16;4993656;28;20043;-88
2022/09/24 03:04:10;;;;;;;14.32;9.32;;;;;;;11.83;68.68;100823.03;4993197;28;20042;-86
2022/09/24 03:06:36;;;;;;;16.30;10.05;;;;;;;11.92;69.28;100837.59;5016214;28;20030;-87
2022/09/24 03:09:06;;;;;;;25.70;11.32;;;;;;;12.50;69.25;100927.94;5015463;28;20142;-87
2022/09/24 03:11:52;;;;;;;10.90;8.48;;;;;;;12.37;68.91;100894.88;4984142;28;20050;-88
2022/09/24 03:14:17;;;;;;;51.00;11.60;;;;;;;12.41;69.55;100904.44;4982407;22;20023;-86
2022/09/24 03:16:43;;;;;;;16.00;10.38;;;;;;;12.65;69.19;100934.72;5039234;28;20147;-88
2022/09/24 03:19:09;;;;;;;18.48;10.35;;;;;;;12.25;69.10;100880.59;5094665;23;20085;-86
2022/09/24 03:21:35;;;;;;;15.93;8.32;;;;;;;12.67;68.77;100939.97;5016235;28;20018;-87
2022/09/24 03:24:02;;;;;;;26.85;9.13;;;;;;;12.73;68.99;100958.34;5019489;28;20020;-88
2022/09/24 03:26:28;;;;;;;62.75;11.10;;;;;;;12.61;68.90;100944.06;5017938;28;20042;-88
2022/09/24 03:28:55;;;;;;;99.72;12.80;;;;;;;12.63;69.22;100947.47;5018154;28;20011;-88
2022/09/24 03:31:23;;;;;;;27.90;8.48;;;;;;;12.05;69.49;100849.03;4993287;28;20039;-84
2022/09/24 03:33:53;;;;;;;24.10;7.97;;;;;;;12.57;69.00;100930.97;4962110;28;20045;-86
2022/09/24 03:36:24;;;;;;;14.80;7.57;;;;;;;12.16;68.69;100858.94;5036797;23;20035;-87
2022/09/24 03:39:09;;;;;;;59.95;9.93;;;;;;;12.43;69.17;100902.44;5351197;22;20105;-90
2022/09/24 03:41:56;;;;;;;34.63;8.50;;;;;;;12.46;69.33;100903.06;5036140;28;20029;-89
2022/09/24 03:44:22;;;;;;;23.17;7.53;;;;;;;12.43;69.56;100902.44;4974397;28;20049;-89
2022/09/24 03:47:07;;;;;;;42.17;8.23;;;;;;;12.88;69.18;100968.69;4959413;29;20035;-88
2022/09/24 03:49:33;;;;;;;28.77;7.03;;;;;;;12.85;68.92;100960.84;4957676;28;20040;-86
2022/09/24 03:51:58;;;;;;;48.38;8.02;;;;;;;12.43;68.91;100889.81;4948721;28;20091;-88
2022/09/24 03:54:24;;;;;;;143.15;14.43;;;;;;;12.73;69.04;100936.75;4935146;29;20043;-88
2022/09/24 03:56:49;;;;;;;44.38;7.63;;;;;;;13.04;68.95;100985.31;4919938;29;20036;-87
2022/09/24 03:59:14;;;;;;;39.97;8.07;;;;;;;13.01;69.17;100984.69;4934900;29;20044;-87
2022/09/24 04:01:40;;;;;;;20.77;6.20;;;;;;;13.12;69.04;100994.63;4943107;29;20056;-87
2022/09/24 04:04:05;;;;;;;18.83;8.30;;;;;;;13.08;68.58;100997.59;4937516;29;20050;-86
2022/09/24 04:06:31;;;;;;;16.30;7.15;;;;;;;12.96;68.67;100992.34;4940264;29;20040;-87
2022/09/24 04:08:56;;;;;;;17.80;6.72;;;;;;;12.90;68.18;100984.78;4938969;29;20130;-87
2022/09/24 04:11:23;;;;;;;25.75;8.65;;;;;;;12.79;68.43;100980.28;4923571;29;20507;-87
2022/09/24 04:13:49;;;;;;;20.40;7.88;;;;;;;12.78;68.14;100983.94;4934736;29;20043;-84
2022/09/24 04:16:16;;;;;;;24.00;10.65;;;;;;;12.91;68.27;101017.03;4957966;28;20063;-85
2022/09/24 04:18:41;;;;;;;20.90;10.05;;;;;;;12.61;68.52;100981.84;4958398;28;20070;-86
2022/09/24 04:21:07;;;;;;;20.90;11.30;;;;;;;12.78;68.72;101032.53;4976991;28;20054;-86
2022/09/24 04:23:33;;;;;;;29.73;11.18;;;;;;;12.50;69.13;100995.38;4979885;28;20511;-78
2022/09/24 04:26:01;;;;;;;26.52;12.18;;;;;;;12.54;68.81;101010.31;4973042;28;20105;-80
2022/09/24 04:28:29;;;;;;;20.42;12.00;;;;;;;12.58;68.96;101027.97;4971916;28;20121;-81
2022/09/24 04:39:50;;;;;;;33.08;11.77;;;;;;;12.02;69.68;100977.88;5499258;23;20124;-86
2022/09/24 04:42:39;;;;;;;52.72;13.13;;;;;;;12.38;70.04;101028.78;5715607;23;20026;-83
2022/09/24 04:47:57;;;;;;;34.38;10.30;;;;;;;12.16;68.98;100977.56;5639040;23;20045;-85
2022/09/24 04:55:40;;;;;;;279.35;28.33;;;;;;;12.79;67.73;101066.66;5410442;23;20059;-86
2022/09/24 04:58:06;;;;;;;88.30;11.38;;;;;;;12.67;67.40;101034.44;4957518;29;20093;-87
2022/09/24 05:00:32;;;;;;;24.13;6.47;;;;;;;12.93;67.06;101069.06;4964505;28;20038;-85
2022/09/24 05:02:59;;;;;;;68.80;8.48;;;;;;;12.85;66.63;101031.03;4978630;28;20067;-85
2022/09/24 05:05:27;;;;;;;22.60;7.03;;;;;;;13.09;65.90;101065.94;4983981;28;20351;-84
2022/09/24 05:07:55;;;;;;;97.07;11.77;;;;;;;13.08;66.30;101062.41;4967185;28;20122;-84
2022/09/24 05:10:21;;;;;;;36.13;8.50;;;;;;;13.09;65.53;101053.28;4964072;28;20042;-82
2022/09/24 05:13:06;;;;;;;150.95;14.80;;;;;;;13.23;65.73;101051.28;4981650;28;20103;-86
2022/09/24 05:15:51;;;;;;;18.55;7.05;;;;;;;13.29;65.10;101064.25;4942376;29;20096;-86
2022/09/24 05:18:17;;;;;;;16.08;7.45;;;;;;;13.24;64.92;101044.88;4906238;29;20107;-84
2022/09/24 05:20:42;;;;;;;26.83;8.43;;;;;;;13.42;64.90;101067.63;4883904;29;20075;-87
2022/09/24 05:23:08;;;;;;;28.02;8.70;;;;;;;13.07;64.67;101012.03;4897729;29;20097;-85
2022/09/24 05:27:07;;;;;;;15.15;8.18;;;;;;;12.84;65.02;100972.63;4883602;29;20044;-85
2022/09/24 05:28:20;;;;;;;22.15;8.60;;;;;;;13.38;64.77;101048.09;4905920;29;20469;-84
2022/09/24 05:30:46;;;;;;;14.32;6.88;;;;;;;13.47;64.63;101057.25;4903190;29;20064;-84
2022/09/24 05:33:12;;;;;;;36.70;8.82;;;;;;;13.62;64.59;101075.69;4902494;29;20049;-87
2022/09/24 05:35:37;;;;;;;71.63;11.10;;;;;;;13.23;64.49;100991.84;4890420;29;20536;-83
2022/09/24 05:38:03;;;;;;;28.40;8.80;;;;;;;13.69;65.57;101051.69;4862844;29;20195;-79
2022/09/24 05:40:47;;;;;;;26.00;7.78;;;;;;;13.63;65.59;101036.88;4875666;29;20052;-80
2022/09/24 05:43:13;;;;;;;21.48;8.32;;;;;;;13.99;64.88;101081.44;4892809;29;20128;-79
2022/09/24 05:45:38;;;;;;;21.20;9.05;;;;;;;13.75;64.11;101029.53;4886444;29;20044;-81
2022/09/24 05:48:04;;;;;;;24.50;8.32;;;;;;;13.93;63.78;101060.34;4877652;29;20184;-81
2022/09/24 05:50:33;;;;;;;18.30;7.72;;;;;;;13.95;63.74;101058.38;4934430;29;20418;-82
2022/09/24 05:53:03;;;;;;;20.13;9.35;;;;;;;14.15;63.18;101076.41;4952296;29;20039;-81
2022/09/24 05:55:29;;;;;;;27.23;9.35;;;;;;;14.28;63.48;101091.53;4945956;29;20122;-84
2022/09/24 05:58:18;;;;;;;33.08;8.98;;;;;;;14.34;62.85;101096.44;4931583;29;20058;-86
2022/09/24 06:00:44;;;;;;;28.27;8.15;;;;;;;14.22;62.47;101084.78;4899682;29;20511;-82
2022/09/24 06:03:15;;;;;;;17.00;8.05;;;;;;;14.36;62.73;101099.84;4912836;29;20188;-83
2022/09/24 06:05:49;;;;;;;23.02;8.07;;;;;;;14.33;62.61;101090.16;4912197;29;20036;-82
2022/09/24 06:08:16;;;;;;;23.67;9.88;;;;;;;14.38;62.01;101104.13;4912616;29;20036;-86
2022/09/24 06:10:44;;;;;;;15.23;9.85;;;;;;;14.52;62.33;101116.44;4914076;29;20531;-89
2022/09/24 06:13:10;;;;;;;17.90;8.98;;;;;;;14.54;62.02;101106.31;4875390;29;20178;-85
2022/09/24 06:15:37;;;;;;;35.33;9.80;;;;;;;14.59;61.83;101123.84;4873462;29;20078;-87
2022/09/24 06:18:03;;;;;;;20.00;8.05;;;;;;;14.39;61.00;101076.06;4874335;29;20043;-82
2022/09/24 06:20:29;;;;;;;22.15;8.48;;;;;;;14.65;60.64;101114.28;4873721;29;20075;-82
2022/09/24 06:22:56;;;;;;;16.38;8.70;;;;;;;14.50;60.86;101085.91;4873708;29;20080;-83
2022/09/24 06:25:23;;;;;;;23.73;10.32;;;;;;;14.65;60.97;101107.03;4873557;29;20025;-84
2022/09/24 06:27:59;;;;;;;40.03;9.85;;;;;;;14.79;60.95;101113.06;4875441;29;20049;-83
2022/09/24 06:30:26;;;;;;;14.50;8.32;;;;;;;14.93;60.96;101118.06;4883986;29;20090;-84
2022/09/24 06:32:52;;;;;;;26.08;8.50;;;;;;;14.84;60.61;101111.63;4892426;29;20060;-83
2022/09/24 06:35:18;;;;;;;10.70;8.18;;;;;;;15.00;60.37;101128.19;4891764;29;20034;-83
2022/09/24 06:37:44;;;;;;;18.52;9.65;;;;;;;15.06;60.37;101135.75;4891465;29;20161;-81
2022/09/24 06:40:09;;;;;;;14.95;9.32;;;;;;;14.99;60.31;101110.22;4891123;29;20119;-83
2022/09/24 06:42:35;;;;;;;14.35;8.85;;;;;;;15.15;60.63;101126.78;4891255;29;20051;-83
2022/09/24 06:45:00;;;;;;;28.60;10.90;;;;;;;15.22;60.41;101122.50;4932454;29;20043;-83
2022/09/24 06:47:25;;;;;;;21.88;9.52;;;;;;;15.30;60.17;101123.63;4949994;29;20451;-81
2022/09/24 06:49:51;;;;;;;23.75;8.30;;;;;;;15.03;59.42;101062.03;4950618;29;20027;-82
2022/09/24 06:52:16;;;;;;;32.78;6.93;;;;;;;15.48;58.53;101121.94;4951147;29;20031;-82
2022/09/24 06:54:42;;;;;;;38.92;6.00;;;;;;;15.40;56.01;101114.50;4951580;29;20042;-81
2022/09/24 06:57:07;;;;;;;50.42;4.70;;;;;;;15.59;55.74;101138.06;4950853;29;20047;-84
2022/09/24 06:59:32;;;;;;;15.85;4.38;;;;;;;15.62;55.95;101124.22;4936979;29;20102;-80
2022/09/24 07:01:58;;;;;;;6.35;2.78;;;;;;;15.74;54.81;101128.50;4957382;29;20603;-79
2022/09/24 07:04:24;;;;;;;16.67;3.83;;;;;;;15.65;54.67;101118.53;4963472;29;20083;-78
2022/09/24 07:09:35;;;;;;;8.13;3.00;;;;;;;15.77;54.15;101123.63;4974062;29;20074;-81
2022/09/24 07:12:04;;;;;;;10.63;4.28;;;;;;;15.69;53.77;101098.22;4965563;29;20091;-82
2022/09/24 07:14:29;;;;;;;11.52;2.75;;;;;;;15.93;54.03;101119.44;4939171;29;20381;-80
2022/09/24 07:16:55;;;;;;;26.50;17.23;;;;;;;15.95;53.25;101109.28;4955176;29;20087;-82
2022/09/24 07:19:20;;;;;;;11.10;3.60;;;;;;;16.07;53.04;101133.41;4955039;29;20046;-85
2022/09/24 07:21:45;;;;;;;6.38;3.58;;;;;;;16.13;53.06;101134.66;4938047;29;20039;-83
2022/09/24 07:24:11;;;;;;;17.70;4.03;;;;;;;15.95;52.75;101096.59;4954040;29;20126;-77
2022/09/24 07:26:36;;;;;;;10.02;3.10;;;;;;;16.26;52.18;101125.19;4953360;29;20050;-77
2022/09/24 07:29:02;;;;;;;14.68;3.92;;;;;;;16.20;52.18;101124.94;4953990;29;20078;-82
2022/09/24 07:31:29;;;;;;;11.13;3.28;;;;;;;16.04;52.40;101084.00;4956349;29;20067;-89
2022/09/24 07:33:55;;;;;;;7.90;2.53;;;;;;;16.29;52.68;101103.19;4956440;29;20039;-89
2022/09/24 07:36:21;;;;;;;8.43;3.03;;;;;;;16.43;52.10;101123.53;4955773;29;20117;-86
2022/09/24 07:38:46;;;;;;;6.65;3.08;;;;;;;16.10;52.73;101048.13;4939877;29;20119;-86
2022/09/24 07:41:11;;;;;;;7.32;2.60;;;;;;;15.99;52.01;101026.63;4955424;29;20479;-84
2022/09/24 07:43:37;;;;;;;15.52;2.90;;;;;;;16.62;52.21;101119.88;4955387;29;20454;-86
2022/09/24 07:46:03;;;;;;;14.40;4.63;;;;;;;16.69;51.96;101126.44;4952855;29;20520;-80
2022/09/24 07:48:28;;;;;;;9.70;3.22;;;;;;;16.83;52.10;101123.19;4954288;29;20115;-81
2022/09/24 07:50:54;;;;;;;11.68;3.30;;;;;;;16.79;51.82;101095.47;4954709;29;20093;-81
2022/09/24 07:53:20;;;;;;;7.10;3.33;;;;;;;17.04;52.08;101129.19;4954401;29;20388;-81
2022/09/24 07:55:46;;;;;;;22.45;4.85;;;;;;;17.15;51.19;101118.09;4937554;29;20055;-77
2022/09/24 07:58:12;;;;;;;12.05;3.83;;;;;;;17.22;50.90;101118.31;4958389;29;20392;-77
2022/09/24 08:00:38;;;;;;;4.47;2.45;;;;;;;17.35;50.38;101116.94;4974557;29;20099;-79
2022/09/24 08:03:04;;;;;;;7.63;2.45;;;;;;;17.13;49.81;101068.47;4976664;29;20030;-81
2022/09/24 08:05:31;;;;;;;9.52;3.03;;;;;;;17.56;49.74;101126.63;4947996;29;20035;-81
2022/09/24 08:07:57;;;;;;;13.25;3.80;;;;;;;17.62;50.32;101120.56;4956334;29;20031;-84
2022/09/24 08:10:24;;;;;;;9.20;3.00;;;;;;;17.58;49.45;101103.72;4956656;28;20090;-81
2022/09/24 08:12:49;;;;;;;12.43;3.35;;;;;;;17.46;48.41;101082.34;4954164;29;20561;-83
2022/09/24 08:15:15;;;;;;;7.35;2.53;;;;;;;17.69;47.91;101105.31;4954350;29;20039;-83
2022/09/24 08:17:41;;;;;;;5.25;2.95;;;;;;;17.83;47.89;101129.22;4937244;29;20505;-79
2022/09/24 08:20:07;;;;;;;12.07;3.00;;;;;;;17.86;48.15;101123.47;4954372;29;20582;-82
2022/09/24 08:22:32;;;;;;;12.23;2.97;;;;;;;18.01;47.55;101132.75;4957178;29;20062;-81
2022/09/24 08:24:58;;;;;;;10.07;2.90;;;;;;;17.77;47.40;101083.59;4941557;29;20138;-89
2022/09/24 08:27:24;;;;;;;8.10;2.17;;;;;;;17.93;47.40;101108.22;4941150;29;20037;-87
2022/09/24 08:29:50;;;;;;;10.55;3.33;;;;;;;18.24;47.24;101124.91;4967214;29;20031;-83
2022/09/24 08:32:16;;;;;;;25.80;3.10;;;;;;;18.39;46.95;101126.84;4969314;29;20483;-82
2022/09/24 08:34:43;;;;;;;6.43;2.78;;;;;;;18.48;46.88;101114.97;4969180;29;20213;-79
2022/09/24 08:37:09;;;;;;;21.67;2.20;;;;;;;18.48;45.65;101112.25;4957374;29;20031;-84
2022/09/24 08:39:34;;;;;;;8.38;2.45;;;;;;;18.54;45.39;101104.47;4955136;29;20023;-85
2022/09/24 08:42:04;;;;;;;6.20;2.50;;;;;;;18.39;45.04;101080.56;4956959;29;20406;-87
2022/09/24 08:47:30;;;;;;;12.27;3.03;;;;;;;18.69;44.93;101117.28;4952894;29;20046;-81
2022/09/24 08:50:14;;;;;;;4.80;2.87;;;;;;;18.71;45.01;101104.38;4935375;29;20050;-81
2022/09/24 08:52:48;;;;;;;7.57;2.88;;;;;;;18.81;44.85;101110.50;4952704;29;20038;-81
2022/09/24 08:55:50;;;;;;;13.15;3.03;;;;;;;18.97;45.03;101115.16;4952216;29;20050;-81
2022/09/24 08:58:15;;;;;;;23.58;3.28;;;;;;;19.14;44.95;101106.00;4935478;29;20031;-86
2022/09/24 09:00:53;;;;;;;30.00;4.15;;;;;;;19.13;44.24;101087.06;4952494;29;20034;-88
2022/09/24 09:03:42;;;;;;;11.50;4.03;;;;;;;19.27;43.87;101089.97;4953389;29;20085;-80
2022/09/24 09:06:10;;;;;;;10.75;2.70;;;;;;;19.25;43.83;101064.75;4952954;29;20122;-82
2022/09/24 09:08:57;;;;;;;10.18;2.50;;;;;;;19.59;43.81;101099.22;4953636;29;20019;-83
2022/09/24 09:11:27;;;;;;;13.82;4.40;;;;;;;19.63;43.90;101093.22;4954513;29;20031;-89
2022/09/24 09:14:02;;;;;;;4.88;2.70;;;;;;;19.76;42.48;101098.16;4955261;29;20495;-91
2022/09/24 09:16:34;;;;;;;6.45;2.45;;;;;;;19.91;42.73;101099.16;4957216;29;20058;-89
2022/09/24 09:19:04;;;;;;;5.93;2.53;;;;;;;19.95;42.57;101078.69;4961583;28;20474;-90
2022/09/24 09:21:51;;;;;;;11.60;2.40;;;;;;;20.15;41.82;101101.84;4955272;29;20035;-89
2022/09/24 09:24:23;;;;;;;12.57;3.17;;;;;;;20.23;41.18;101093.63;4957820;29;20023;-88
2022/09/24 09:26:53;;;;;;;12.27;2.25;;;;;;;20.30;40.62;101099.28;4953667;29;20510;-90
2022/09/24 09:29:23;;;;;;;6.25;2.42;;;;;;;20.28;40.16;101080.31;4953327;29;20059;-79
2022/09/24 09:32:00;;;;;;;13.07;2.78;;;;;;;20.42;40.40;101097.88;4952093;29;20029;-83
2022/09/24 09:34:39;;;;;;;6.05;1.95;;;;;;;20.48;39.85;101094.44;4952331;29;20478;-84
2022/09/24 09:37:23;;;;;;;10.35;2.65;;;;;;;20.52;39.46;101088.41;4952477;29;20147;-84
2022/09/24 09:40:00;;;;;;;10.95;2.40;;;;;;;20.60;38.68;101087.53;4951457;29;20059;-78
2022/09/24 09:42:33;;;;;;;25.33;3.08;;;;;;;20.47;38.99;101044.38;4933906;29;20061;-82
2022/09/24 09:45:01;;;;;;;6.28;2.33;;;;;;;20.64;38.25;101042.38;4952874;29;20114;-81
2022/09/24 09:47:39;;;;;;;20.95;3.33;;;;;;;21.02;37.69;101079.75;4952653;29;20028;-82
2022/09/24 09:50:17;;;;;;;5.30;1.55;;;;;;;21.04;37.31;101065.88;4952492;29;20035;-81
2022/09/24 09:52:42;;;;;;;5.80;2.13;;;;;;;21.20;37.01;101079.47;4936719;29;20027;-82
2022/09/24 09:55:19;;;;;;;7.53;2.15;;;;;;;21.33;37.16;101059.72;4972329;29;20031;-84
2022/09/24 09:57:45;;;;;;;9.20;2.05;;;;;;;21.44;36.52;101062.88;4968828;29;20027;-81
2022/09/24 10:00:25;;;;;;;10.63;2.28;;;;;;;21.59;35.48;101061.00;4969338;29;20030;-85
2022/09/24 10:02:52;;;;;;;5.72;1.60;;;;;;;21.71;35.40;101065.00;4961675;29;20395;-84
2022/09/24 10:05:20;;;;;;;7.25;2.10;;;;;;;21.85;35.39;101070.69;4956661;29;20031;-84
2022/09/24 10:07:46;;;;;;;24.52;1.83;;;;;;;21.63;33.32;101034.97;4952653;29;20043;-84
2022/09/24 10:10:16;;;;;;;9.20;1.70;;;;;;;21.82;32.99;101068.31;4951780;29;20034;-83
2022/09/24 10:12:42;;;;;;;4.60;1.65;;;;;;;21.69;33.67;101052.53;4952273;29;20043;-83
2022/09/24 10:15:13;;;;;;;6.78;1.55;;;;;;;21.92;33.52;101074.44;4952684;29;20424;-85
2022/09/24 10:17:39;;;;;;;2.03;1.20;;;;;;;21.82;33.36;101039.06;4953074;29;20032;-83
2022/09/24 10:20:36;;;;;;;4.32;1.42;;;;;;;22.00;32.32;101064.22;4953585;29;20094;-84
2022/09/24 10:23:05;;;;;;;5.45;1.83;;;;;;;21.98;32.61;101049.03;4934415;29;20043;-85
2022/09/24 10:25:33;;;;;;;4.18;1.75;;;;;;;22.19;32.99;101051.84;4952959;28;20051;-83
2022/09/24 10:30:55;;;;;;;3.70;1.60;;;;;;;21.92;32.23;100965.72;4955220;29;20570;-87
2022/09/24 10:33:21;;;;;;;2.92;1.65;;;;;;;22.55;32.76;101047.25;4957112;28;20039;-91
2022/09/24 10:35:47;;;;;;;14.00;1.95;;;;;;;22.61;32.27;101037.41;4955803;28;20095;-89
2022/09/24 10:38:20;;;;;;;2.78;1.85;;;;;;;22.91;32.09;101057.41;4939189;29;20093;-84
2022/09/24 10:40:46;;;;;;;12.00;1.58;;;;;;;22.97;30.98;101051.97;4955259;29;20390;-82
2022/09/24 10:43:18;;;;;;;36.50;2.45;;;;;;;22.91;31.25;101019.00;4955039;29;20035;-81
2022/09/24 10:46:14;;;;;;;3.28;1.40;;;;;;;23.27;30.71;101042.56;4955903;29;20035;-80
2022/09/24 10:48:49;;;;;;;2.40;1.27;;;;;;;23.35;29.02;101054.47;4939864;29;20554;-85
2022/09/24 10:51:30;;;;;;;4.03;1.40;;;;;;;23.33;29.51;101045.59;4957325;29;20470;-85
2022/09/24 10:54:01;;;;;;;5.93;1.20;;;;;;;23.50;30.12;101056.13;4957293;29;20094;-80
2022/09/24 10:56:37;;;;;;;4.78;1.13;;;;;;;23.54;29.98;101054.69;4957059;29;20055;-79
2022/09/24 10:59:30;;;;;;;6.80;1.58;;;;;;;23.45;29.20;101049.53;4955153;29;20730;-78
2022/09/24 11:02:16;;;;;;;12.40;1.60;;;;;;;23.31;29.82;101037.53;4953838;29;20074;-80
2022/09/24 11:04:54;;;;;;;24.15;2.63;;;;;;;23.20;30.23;101060.03;4875781;29;20111;-77
2022/09/24 11:07:36;;;;;;;5.20;1.27;;;;;;;23.13;30.25;101050.88;4876271;29;20096;-78
2022/09/24 11:10:22;;;;;;;13.48;2.47;;;;;;;23.20;30.43;101051.81;4875924;29;20532;-78
2022/09/24 11:12:47;;;;;;;5.88;1.92;;;;;;;23.27;30.32;101053.56;4875218;29;20045;-78
2022/09/24 11:15:50;;;;;;;10.82;1.55;;;;;;;23.35;30.44;101047.09;4877671;29;20049;-79
2022/09/24 11:18:28;;;;;;;13.27;1.83;;;;;;;23.60;30.36;101039.31;4881457;29;20029;-78
2022/09/24 11:21:28;;;;;;;7.05;1.52;;;;;;;23.76;29.87;101033.50;4888979;29;20037;-79
2022/09/24 11:23:56;;;;;;;5.93;1.45;;;;;;;23.81;29.36;101028.25;4888873;29;20884;-80
2022/09/24 11:26:45;;;;;;;3.05;1.40;;;;;;;23.80;29.23;101026.56;4879848;29;20041;-78
2022/09/24 11:29:19;;;;;;;4.32;1.60;;;;;;;23.91;28.93;101028.75;4875745;29;20052;-80
2022/09/24 11:31:58;;;;;;;6.20;1.77;;;;;;;23.69;28.81;101019.75;4876294;29;20033;-78
2022/09/24 11:34:30;;;;;;;4.90;1.67;;;;;;;23.71;29.14;101028.63;4883560;29;20876;-81
2022/09/24 11:37:17;;;;;;;11.15;2.28;;;;;;;23.73;29.61;101023.75;4875506;29;20128;-78
2022/09/24 11:39:42;;;;;;;9.00;2.70;;;;;;;23.77;29.44;101029.69;4875169;29;20047;-79
2022/09/24 11:42:08;;;;;;;13.35;2.50;;;;;;;23.82;28.76;101019.81;4923752;29;20051;-78
2022/09/24 11:44:52;;;;;;;9.40;1.77;;;;;;;23.88;28.77;101009.06;4953408;29;20066;-78
2022/09/24 11:47:31;;;;;;;3.10;1.55;;;;;;;23.53;28.86;100948.63;4919068;29;20039;-79
2022/09/24 11:50:27;;;;;;;2.30;1.30;;;;;;;23.60;28.52;100982.50;4952904;29;20478;-77
2022/09/24 11:53:05;;;;;;;3.72;1.35;;;;;;;23.45;28.79;101013.84;4953278;29;20567;-85
2022/09/24 11:55:41;;;;;;;11.38;2.03;;;;;;;22.84;28.22;100953.13;4952800;29;20818;-85
2022/09/24 11:58:13;;;;;;;8.38;2.00;;;;;;;23.13;28.81;101006.97;4953391;29;20483;-85
2022/09/24 12:01:29;;;;;;;2.35;1.50;;;;;;;23.29;29.32;101013.03;4953247;29;20040;-80
2022/09/24 12:04:09;;;;;;;6.25;1.15;;;;;;;23.45;28.56;101003.72;4875685;29;20888;-88
2022/09/24 12:06:41;;;;;;;12.18;2.15;;;;;;;23.52;27.79;101014.72;4875207;29;20052;-87